sensor_id;sensor_type;location;lat;lon;timestamp;temperature;humidity
420;DHT22;42600;54.408;13.016;2022-07-04T00:01:02;18.80;92.70
420;DHT22;42600;54.408;13.016;2022-07-04T00:03:28;18.80;92.70
420;DHT22;42600;54.408;13.016;2022-07-04T00:05:55;18.70;92.70
420;DHT22;42600;54.408;13.016;2022-07-04T00:08:21;18.70;92.70
420;DHT22;42600;54.408;13.016;2022-07-04T00:10:48;18.60;92.70
420;DHT22;42600;54.408;13.016;2022-07-04T00:13:16;18.80;92.50
420;DHT22;42600;54.408;13.016;2022-07-04T00:15:42;18.80;92.70
420;DHT22;42600;54.408;13.016;2022-07-04T00:18:09;18.70;92.70
420;DHT22;42600;54.408;13.016;2022-07-04T00:20:36;18.50;92.70
420;DHT22;42600;54.408;13.016;2022-07-04T00:23:02;18.50;92.70
420;DHT22;42600;54.408;13.016;2022-07-04T00:25:29;18.40;92.70
420;DHT22;42600;54.408;13.016;2022-07-04T00:27:55;18.30;92.70
420;DHT22;42600;54.408;13.016;2022-07-04T00:30:23;18.30;92.70
420;DHT22;42600;54.408;13.016;2022-07-04T00:32:50;18.30;92.70
420;DHT22;42600;54.408;13.016;2022-07-04T00:35:17;18.20;92.70
420;DHT22;42600;54.408;13.016;2022-07-04T00:37:43;18.20;92.70
420;DHT22;42600;54.408;13.016;2022-07-04T00:40:11;18.10;92.70
420;DHT22;42600;54.408;13.016;2022-07-04T00:42:37;18.10;92.70
420;DHT22;42600;54.408;13.016;2022-07-04T00:45:05;18.00;92.70
420;DHT22;42600;54.408;13.016;2022-07-04T00:47:33;18.00;92.70
420;DHT22;42600;54.408;13.016;2022-07-04T00:50:00;18.00;92.70
420;DHT22;42600;54.408;13.016;2022-07-04T00:52:27;17.90;92.70
420;DHT22;42600;54.408;13.016;2022-07-04T00:54:54;17.90;92.70
420;DHT22;42600;54.408;13.016;2022-07-04T00:57:20;17.80;92.70
420;DHT22;42600;54.408;13.016;2022-07-04T00:59:47;17.80;92.70
420;DHT22;42600;54.408;13.016;2022-07-04T01:02:13;17.70;92.70
420;DHT22;42600;54.408;13.016;2022-07-04T01:04:41;17.70;92.70
420;DHT22;42600;54.408;13.016;2022-07-04T01:07:11;17.70;92.70
420;DHT22;42600;54.408;13.016;2022-07-04T01:09:38;17.70;92.70
420;DHT22;42600;54.408;13.016;2022-07-04T01:12:05;18.00;92.70
420;DHT22;42600;54.408;13.016;2022-07-04T01:14:31;18.10;92.70
420;DHT22;42600;54.408;13.016;2022-07-04T01:16:58;18.00;92.70
420;DHT22;42600;54.408;13.016;2022-07-04T01:19:25;18.00;92.70
420;DHT22;42600;54.408;13.016;2022-07-04T01:21:52;18.00;92.70
420;DHT22;42600;54.408;13.016;2022-07-04T01:24:19;18.30;92.70
420;DHT22;42600;54.408;13.016;2022-07-04T01:26:46;18.10;92.70
420;DHT22;42600;54.408;13.016;2022-07-04T01:29:12;18.00;92.70
420;DHT22;42600;54.408;13.016;2022-07-04T01:31:40;17.90;92.70
420;DHT22;42600;54.408;13.016;2022-07-04T01:34:06;18.00;92.70
420;DHT22;42600;54.408;13.016;2022-07-04T01:36:33;17.90;92.70
420;DHT22;42600;54.408;13.016;2022-07-04T01:39:02;17.80;92.70
420;DHT22;42600;54.408;13.016;2022-07-04T01:41:33;17.70;92.70
420;DHT22;42600;54.408;13.016;2022-07-04T01:44:00;17.70;92.70
420;DHT22;42600;54.408;13.016;2022-07-04T01:46:26;17.60;92.70
420;DHT22;42600;54.408;13.016;2022-07-04T01:48:53;17.60;92.70
420;DHT22;42600;54.408;13.016;2022-07-04T01:51:19;17.50;92.70
420;DHT22;42600;54.408;13.016;2022-07-04T01:53:46;17.50;92.70
420;DHT22;42600;54.408;13.016;2022-07-04T01:56:14;17.50;92.70
420;DHT22;42600;54.408;13.016;2022-07-04T01:58:40;17.40;92.70
420;DHT22;42600;54.408;13.016;2022-07-04T02:01:07;17.30;92.70
420;DHT22;42600;54.408;13.016;2022-07-04T02:03:51;17.20;92.70
420;DHT22;42600;54.408;13.016;2022-07-04T02:06:18;17.20;92.70
420;DHT22;42600;54.408;13.016;2022-07-04T02:08:44;17.20;92.70
420;DHT22;42600;54.408;13.016;2022-07-04T02:11:30;17.20;92.70
420;DHT22;42600;54.408;13.016;2022-07-04T02:14:16;17.10;92.70
420;DHT22;42600;54.408;13.016;2022-07-04T02:16:42;17.00;92.70
420;DHT22;42600;54.408;13.016;2022-07-04T02:19:08;16.90;92.70
420;DHT22;42600;54.408;13.016;2022-07-04T02:21:35;17.00;92.70
420;DHT22;42600;54.408;13.016;2022-07-04T02:24:02;17.10;92.70
420;DHT22;42600;54.408;13.016;2022-07-04T02:26:30;17.20;92.70
420;DHT22;42600;54.408;13.016;2022-07-04T02:28:56;17.10;92.70
420;DHT22;42600;54.408;13.016;2022-07-04T02:31:23;17.00;92.70
420;DHT22;42600;54.408;13.016;2022-07-04T02:33:49;16.90;92.70
420;DHT22;42600;54.408;13.016;2022-07-04T02:36:16;16.90;92.70
420;DHT22;42600;54.408;13.016;2022-07-04T02:38:43;17.00;92.70
420;DHT22;42600;54.408;13.016;2022-07-04T02:41:09;17.00;92.70
420;DHT22;42600;54.408;13.016;2022-07-04T02:43:37;17.00;92.70
420;DHT22;42600;54.408;13.016;2022-07-04T02:46:04;17.10;92.70
420;DHT22;42600;54.408;13.016;2022-07-04T02:48:30;17.40;92.70
420;DHT22;42600;54.408;13.016;2022-07-04T02:50:57;17.40;92.70
420;DHT22;42600;54.408;13.016;2022-07-04T02:53:23;17.50;92.70
420;DHT22;42600;54.408;13.016;2022-07-04T02:55:50;17.60;92.70
420;DHT22;42600;54.408;13.016;2022-07-04T02:58:16;17.40;92.70
420;DHT22;42600;54.408;13.016;2022-07-04T03:00:44;17.60;92.70
420;DHT22;42600;54.408;13.016;2022-07-04T03:03:11;17.70;92.70
420;DHT22;42600;54.408;13.016;2022-07-04T03:05:37;17.70;92.70
420;DHT22;42600;54.408;13.016;2022-07-04T03:08:05;17.80;92.70
420;DHT22;42600;54.408;13.016;2022-07-04T03:10:32;17.70;92.70
420;DHT22;42600;54.408;13.016;2022-07-04T03:12:58;17.80;92.70
420;DHT22;42600;54.408;13.016;2022-07-04T03:15:25;17.80;92.70
420;DHT22;42600;54.408;13.016;2022-07-04T03:17:53;17.80;92.70
420;DHT22;42600;54.408;13.016;2022-07-04T03:20:19;17.80;92.70
420;DHT22;42600;54.408;13.016;2022-07-04T03:22:46;17.90;92.70
420;DHT22;42600;54.408;13.016;2022-07-04T03:25:12;17.90;92.70
420;DHT22;42600;54.408;13.016;2022-07-04T03:27:39;18.00;92.70
420;DHT22;42600;54.408;13.016;2022-07-04T03:30:06;18.00;92.70
420;DHT22;42600;54.408;13.016;2022-07-04T03:32:33;18.00;92.70
420;DHT22;42600;54.408;13.016;2022-07-04T03:35:01;18.00;92.70
420;DHT22;42600;54.408;13.016;2022-07-04T03:37:28;18.00;92.70
420;DHT22;42600;54.408;13.016;2022-07-04T03:39:54;18.10;92.70
420;DHT22;42600;54.408;13.016;2022-07-04T03:42:21;18.00;92.70
420;DHT22;42600;54.408;13.016;2022-07-04T03:44:48;18.00;92.70
420;DHT22;42600;54.408;13.016;2022-07-04T03:47:14;18.10;92.70
420;DHT22;42600;54.408;13.016;2022-07-04T03:49:41;18.10;92.40
420;DHT22;42600;54.408;13.016;2022-07-04T03:52:09;18.10;92.50
420;DHT22;42600;54.408;13.016;2022-07-04T03:54:36;18.20;92.70
420;DHT22;42600;54.408;13.016;2022-07-04T03:57:03;18.30;92.70
420;DHT22;42600;54.408;13.016;2022-07-04T03:59:29;18.30;92.50
420;DHT22;42600;54.408;13.016;2022-07-04T04:01:56;18.30;92.10
420;DHT22;42600;54.408;13.016;2022-07-04T04:04:22;18.30;91.90
420;DHT22;42600;54.408;13.016;2022-07-04T04:07:08;18.40;92.30
420;DHT22;42600;54.408;13.016;2022-07-04T04:09:35;18.40;92.10
420;DHT22;42600;54.408;13.016;2022-07-04T04:12:01;18.40;92.70
420;DHT22;42600;54.408;13.016;2022-07-04T04:14:28;18.60;91.80
420;DHT22;42600;54.408;13.016;2022-07-04T04:16:55;18.70;92.00
420;DHT22;42600;54.408;13.016;2022-07-04T04:19:21;18.80;92.50
420;DHT22;42600;54.408;13.016;2022-07-04T04:21:48;18.90;91.70
420;DHT22;42600;54.408;13.016;2022-07-04T04:24:16;18.90;90.80
420;DHT22;42600;54.408;13.016;2022-07-04T04:26:43;19.00;91.00
420;DHT22;42600;54.408;13.016;2022-07-04T04:29:09;19.00;90.00
420;DHT22;42600;54.408;13.016;2022-07-04T04:31:36;19.10;89.30
420;DHT22;42600;54.408;13.016;2022-07-04T04:34:03;19.00;89.30
420;DHT22;42600;54.408;13.016;2022-07-04T04:36:29;19.00;89.30
420;DHT22;42600;54.408;13.016;2022-07-04T04:38:56;18.90;89.00
420;DHT22;42600;54.408;13.016;2022-07-04T04:41:24;19.00;89.30
420;DHT22;42600;54.408;13.016;2022-07-04T04:43:51;19.00;89.20
420;DHT22;42600;54.408;13.016;2022-07-04T04:46:17;19.00;88.90
420;DHT22;42600;54.408;13.016;2022-07-04T04:48:44;19.00;88.60
420;DHT22;42600;54.408;13.016;2022-07-04T04:51:10;18.90;88.70
420;DHT22;42600;54.408;13.016;2022-07-04T04:53:37;18.90;88.80
420;DHT22;42600;54.408;13.016;2022-07-04T04:56:04;19.10;88.90
420;DHT22;42600;54.408;13.016;2022-07-04T04:58:32;19.10;88.70
420;DHT22;42600;54.408;13.016;2022-07-04T05:00:58;19.10;88.90
420;DHT22;42600;54.408;13.016;2022-07-04T05:03:27;19.10;88.60
420;DHT22;42600;54.408;13.016;2022-07-04T05:05:54;19.30;87.80
420;DHT22;42600;54.408;13.016;2022-07-04T05:08:20;19.30;88.40
420;DHT22;42600;54.408;13.016;2022-07-04T05:10:50;19.40;87.60
420;DHT22;42600;54.408;13.016;2022-07-04T05:13:16;19.50;87.20
420;DHT22;42600;54.408;13.016;2022-07-04T05:15:45;19.60;87.10
420;DHT22;42600;54.408;13.016;2022-07-04T05:18:12;19.70;86.80
420;DHT22;42600;54.408;13.016;2022-07-04T05:20:39;19.80;85.70
420;DHT22;42600;54.408;13.016;2022-07-04T05:23:06;19.90;85.70
420;DHT22;42600;54.408;13.016;2022-07-04T05:25:32;19.90;85.50
420;DHT22;42600;54.408;13.016;2022-07-04T05:27:59;20.00;85.60
420;DHT22;42600;54.408;13.016;2022-07-04T05:30:26;20.10;84.90
420;DHT22;42600;54.408;13.016;2022-07-04T05:32:53;20.20;84.80
420;DHT22;42600;54.408;13.016;2022-07-04T05:35:20;20.20;85.70
420;DHT22;42600;54.408;13.016;2022-07-04T05:37:47;20.20;85.00
420;DHT22;42600;54.408;13.016;2022-07-04T05:40:13;20.30;84.20
420;DHT22;42600;54.408;13.016;2022-07-04T05:42:40;20.30;85.10
420;DHT22;42600;54.408;13.016;2022-07-04T05:45:07;20.40;84.30
420;DHT22;42600;54.408;13.016;2022-07-04T05:47:34;20.40;84.30
420;DHT22;42600;54.408;13.016;2022-07-04T05:50:02;20.40;83.70
420;DHT22;42600;54.408;13.016;2022-07-04T05:52:29;20.30;83.90
420;DHT22;42600;54.408;13.016;2022-07-04T05:54:56;20.30;84.50
420;DHT22;42600;54.408;13.016;2022-07-04T05:57:22;20.40;84.40
420;DHT22;42600;54.408;13.016;2022-07-04T05:59:49;20.50;84.20
420;DHT22;42600;54.408;13.016;2022-07-04T06:02:16;20.60;84.40
420;DHT22;42600;54.408;13.016;2022-07-04T06:04:43;20.60;84.90
420;DHT22;42600;54.408;13.016;2022-07-04T06:07:11;20.60;85.40
420;DHT22;42600;54.408;13.016;2022-07-04T06:09:38;20.60;85.20
420;DHT22;42600;54.408;13.016;2022-07-04T06:12:05;20.50;85.50
420;DHT22;42600;54.408;13.016;2022-07-04T06:14:31;20.70;85.70
420;DHT22;42600;54.408;13.016;2022-07-04T06:16:58;20.70;85.30
420;DHT22;42600;54.408;13.016;2022-07-04T06:19:25;20.80;84.80
420;DHT22;42600;54.408;13.016;2022-07-04T06:21:51;20.80;84.50
420;DHT22;42600;54.408;13.016;2022-07-04T06:24:19;20.90;84.00
420;DHT22;42600;54.408;13.016;2022-07-04T06:26:46;21.00;84.00
420;DHT22;42600;54.408;13.016;2022-07-04T06:29:13;21.10;84.00
420;DHT22;42600;54.408;13.016;2022-07-04T06:31:39;21.10;84.00
420;DHT22;42600;54.408;13.016;2022-07-04T06:34:06;21.10;83.70
420;DHT22;42600;54.408;13.016;2022-07-04T06:36:50;21.10;84.10
420;DHT22;42600;54.408;13.016;2022-07-04T06:39:18;20.90;84.10
420;DHT22;42600;54.408;13.016;2022-07-04T06:41:45;20.90;83.90
420;DHT22;42600;54.408;13.016;2022-07-04T06:44:11;20.80;83.80
420;DHT22;42600;54.408;13.016;2022-07-04T06:46:39;20.70;83.90
420;DHT22;42600;54.408;13.016;2022-07-04T06:49:05;20.70;83.50
420;DHT22;42600;54.408;13.016;2022-07-04T06:51:32;20.70;83.20
420;DHT22;42600;54.408;13.016;2022-07-04T06:53:59;20.80;83.00
420;DHT22;42600;54.408;13.016;2022-07-04T06:56:27;20.90;82.60
420;DHT22;42600;54.408;13.016;2022-07-04T06:58:53;21.00;82.80
420;DHT22;42600;54.408;13.016;2022-07-04T07:01:20;21.10;82.50
420;DHT22;42600;54.408;13.016;2022-07-04T07:03:47;21.00;82.30
420;DHT22;42600;54.408;13.016;2022-07-04T07:06:14;21.00;81.80
420;DHT22;42600;54.408;13.016;2022-07-04T07:08:40;21.00;81.90
420;DHT22;42600;54.408;13.016;2022-07-04T07:11:07;21.10;82.00
420;DHT22;42600;54.408;13.016;2022-07-04T07:13:45;21.10;81.70
420;DHT22;42600;54.408;13.016;2022-07-04T07:16:11;21.10;81.80
420;DHT22;42600;54.408;13.016;2022-07-04T07:18:38;21.10;81.40
420;DHT22;42600;54.408;13.016;2022-07-04T07:21:05;21.20;81.10
420;DHT22;42600;54.408;13.016;2022-07-04T07:23:31;21.20;80.70
420;DHT22;42600;54.408;13.016;2022-07-04T07:25:58;21.10;80.40
420;DHT22;42600;54.408;13.016;2022-07-04T07:28:24;21.30;80.10
420;DHT22;42600;54.408;13.016;2022-07-04T07:30:52;21.30;79.50
420;DHT22;42600;54.408;13.016;2022-07-04T07:33:19;21.40;79.20
420;DHT22;42600;54.408;13.016;2022-07-04T07:35:46;21.50;79.10
420;DHT22;42600;54.408;13.016;2022-07-04T07:38:12;21.60;79.30
420;DHT22;42600;54.408;13.016;2022-07-04T07:40:39;21.60;78.40
420;DHT22;42600;54.408;13.016;2022-07-04T07:43:06;21.60;78.60
420;DHT22;42600;54.408;13.016;2022-07-04T07:45:33;21.60;78.60
420;DHT22;42600;54.408;13.016;2022-07-04T07:48:01;21.70;78.40
420;DHT22;42600;54.408;13.016;2022-07-04T07:50:28;21.80;78.10
420;DHT22;42600;54.408;13.016;2022-07-04T07:52:54;21.90;77.60
420;DHT22;42600;54.408;13.016;2022-07-04T07:55:21;21.90;76.70
420;DHT22;42600;54.408;13.016;2022-07-04T07:57:47;21.90;76.60
420;DHT22;42600;54.408;13.016;2022-07-04T08:00:15;21.90;76.40
420;DHT22;42600;54.408;13.016;2022-07-04T08:02:41;21.80;76.60
420;DHT22;42600;54.408;13.016;2022-07-04T08:05:27;22.00;77.10
420;DHT22;42600;54.408;13.016;2022-07-04T08:07:53;21.90;76.80
420;DHT22;42600;54.408;13.016;2022-07-04T08:10:20;21.80;77.10
420;DHT22;42600;54.408;13.016;2022-07-04T08:12:47;21.70;77.30
420;DHT22;42600;54.408;13.016;2022-07-04T08:15:13;21.80;77.60
420;DHT22;42600;54.408;13.016;2022-07-04T08:17:40;22.00;77.20
420;DHT22;42600;54.408;13.016;2022-07-04T08:20:08;22.00;77.60
420;DHT22;42600;54.408;13.016;2022-07-04T08:22:36;22.10;77.40
420;DHT22;42600;54.408;13.016;2022-07-04T08:25:03;22.10;76.70
420;DHT22;42600;54.408;13.016;2022-07-04T08:27:30;22.10;75.90
420;DHT22;42600;54.408;13.016;2022-07-04T08:29:56;22.10;75.40
420;DHT22;42600;54.408;13.016;2022-07-04T08:32:23;22.20;75.20
420;DHT22;42600;54.408;13.016;2022-07-04T08:34:49;22.30;74.80
420;DHT22;42600;54.408;13.016;2022-07-04T08:37:16;22.40;75.90
420;DHT22;42600;54.408;13.016;2022-07-04T08:39:44;22.40;76.00
420;DHT22;42600;54.408;13.016;2022-07-04T08:42:16;22.40;75.90
420;DHT22;42600;54.408;13.016;2022-07-04T08:44:46;22.50;75.90
420;DHT22;42600;54.408;13.016;2022-07-04T08:47:17;22.40;76.20
420;DHT22;42600;54.408;13.016;2022-07-04T08:49:48;22.40;76.20
420;DHT22;42600;54.408;13.016;2022-07-04T08:52:18;22.30;75.50
420;DHT22;42600;54.408;13.016;2022-07-04T08:54:54;22.10;75.50
420;DHT22;42600;54.408;13.016;2022-07-04T08:57:38;22.10;75.10
420;DHT22;42600;54.408;13.016;2022-07-04T09:00:23;22.00;74.80
420;DHT22;42600;54.408;13.016;2022-07-04T09:02:49;22.00;75.20
420;DHT22;42600;54.408;13.016;2022-07-04T09:05:16;22.00;74.10
420;DHT22;42600;54.408;13.016;2022-07-04T09:07:44;22.10;74.70
420;DHT22;42600;54.408;13.016;2022-07-04T09:10:16;22.20;74.50
420;DHT22;42600;54.408;13.016;2022-07-04T09:12:43;22.20;74.30
420;DHT22;42600;54.408;13.016;2022-07-04T09:15:09;22.10;74.20
420;DHT22;42600;54.408;13.016;2022-07-04T09:17:36;22.20;73.80
420;DHT22;42600;54.408;13.016;2022-07-04T09:20:14;22.20;73.70
420;DHT22;42600;54.408;13.016;2022-07-04T09:22:41;22.10;73.50
420;DHT22;42600;54.408;13.016;2022-07-04T09:25:08;22.10;73.50
420;DHT22;42600;54.408;13.016;2022-07-04T09:27:40;22.30;73.60
420;DHT22;42600;54.408;13.016;2022-07-04T09:30:10;22.40;73.60
420;DHT22;42600;54.408;13.016;2022-07-04T09:32:39;22.50;73.60
420;DHT22;42600;54.408;13.016;2022-07-04T09:35:07;22.60;74.00
420;DHT22;42600;54.408;13.016;2022-07-04T09:37:36;22.60;74.10
420;DHT22;42600;54.408;13.016;2022-07-04T09:40:05;22.60;73.40
420;DHT22;42600;54.408;13.016;2022-07-04T09:42:41;22.70;73.00
420;DHT22;42600;54.408;13.016;2022-07-04T09:45:09;22.70;73.20
420;DHT22;42600;54.408;13.016;2022-07-04T09:47:37;22.80;73.30
420;DHT22;42600;54.408;13.016;2022-07-04T09:50:06;22.80;72.20
420;DHT22;42600;54.408;13.016;2022-07-04T09:52:44;22.90;72.10
420;DHT22;42600;54.408;13.016;2022-07-04T09:55:10;22.90;71.50
420;DHT22;42600;54.408;13.016;2022-07-04T09:57:44;22.90;71.30
420;DHT22;42600;54.408;13.016;2022-07-04T10:00:19;23.00;71.60
420;DHT22;42600;54.408;13.016;2022-07-04T10:02:46;22.90;70.90
420;DHT22;42600;54.408;13.016;2022-07-04T10:05:19;23.00;70.80
420;DHT22;42600;54.408;13.016;2022-07-04T10:07:46;23.10;71.00
420;DHT22;42600;54.408;13.016;2022-07-04T10:10:23;23.20;71.10
420;DHT22;42600;54.408;13.016;2022-07-04T10:12:53;23.30;70.10
420;DHT22;42600;54.408;13.016;2022-07-04T10:15:20;23.30;70.60
420;DHT22;42600;54.408;13.016;2022-07-04T10:17:47;23.30;70.90
420;DHT22;42600;54.408;13.016;2022-07-04T10:20:15;23.40;70.90
420;DHT22;42600;54.408;13.016;2022-07-04T10:22:41;23.40;71.10
420;DHT22;42600;54.408;13.016;2022-07-04T10:25:09;23.30;71.00
420;DHT22;42600;54.408;13.016;2022-07-04T10:27:37;23.30;70.60
420;DHT22;42600;54.408;13.016;2022-07-04T10:30:07;23.20;69.80
420;DHT22;42600;54.408;13.016;2022-07-04T10:32:36;23.20;69.80
420;DHT22;42600;54.408;13.016;2022-07-04T10:35:03;23.20;70.40
420;DHT22;42600;54.408;13.016;2022-07-04T10:37:59;23.30;70.60
420;DHT22;42600;54.408;13.016;2022-07-04T10:40:43;23.50;70.50
420;DHT22;42600;54.408;13.016;2022-07-04T10:46:32;23.50;69.80
420;DHT22;42600;54.408;13.016;2022-07-04T10:49:01;23.60;69.50
420;DHT22;42600;54.408;13.016;2022-07-04T10:51:49;23.70;69.70
420;DHT22;42600;54.408;13.016;2022-07-04T10:54:18;23.70;69.50
420;DHT22;42600;54.408;13.016;2022-07-04T10:56:50;23.80;69.40
420;DHT22;42600;54.408;13.016;2022-07-04T10:59:19;23.80;69.50
420;DHT22;42600;54.408;13.016;2022-07-04T11:01:49;23.80;69.10
420;DHT22;42600;54.408;13.016;2022-07-04T11:04:45;23.80;68.80
420;DHT22;42600;54.408;13.016;2022-07-04T11:07:12;23.80;69.10
420;DHT22;42600;54.408;13.016;2022-07-04T11:09:38;23.90;69.20
420;DHT22;42600;54.408;13.016;2022-07-04T11:12:05;23.80;68.20
420;DHT22;42600;54.408;13.016;2022-07-04T11:14:36;23.80;68.50
420;DHT22;42600;54.408;13.016;2022-07-04T11:17:05;23.90;68.80
420;DHT22;42600;54.408;13.016;2022-07-04T11:19:33;24.00;68.30
420;DHT22;42600;54.408;13.016;2022-07-04T11:21:59;24.10;68.50
420;DHT22;42600;54.408;13.016;2022-07-04T11:24:27;24.10;69.40
420;DHT22;42600;54.408;13.016;2022-07-04T11:26:54;24.20;68.80
420;DHT22;42600;54.408;13.016;2022-07-04T11:29:20;24.10;68.20
420;DHT22;42600;54.408;13.016;2022-07-04T11:31:48;24.00;68.00
420;DHT22;42600;54.408;13.016;2022-07-04T11:34:17;23.90;68.70
420;DHT22;42600;54.408;13.016;2022-07-04T11:36:46;24.00;68.60
420;DHT22;42600;54.408;13.016;2022-07-04T11:39:13;24.10;68.80
420;DHT22;42600;54.408;13.016;2022-07-04T11:41:44;24.10;68.40
420;DHT22;42600;54.408;13.016;2022-07-04T11:44:30;24.10;68.30
420;DHT22;42600;54.408;13.016;2022-07-04T11:47:16;24.00;68.20
420;DHT22;42600;54.408;13.016;2022-07-04T11:49:48;24.10;67.50
420;DHT22;42600;54.408;13.016;2022-07-04T11:52:16;24.20;68.00
420;DHT22;42600;54.408;13.016;2022-07-04T11:54:44;24.20;68.70
420;DHT22;42600;54.408;13.016;2022-07-04T11:57:16;24.30;67.70
420;DHT22;42600;54.408;13.016;2022-07-04T11:59:50;24.30;68.10
420;DHT22;42600;54.408;13.016;2022-07-04T12:02:18;24.30;67.40
420;DHT22;42600;54.408;13.016;2022-07-04T12:04:45;24.30;67.00
420;DHT22;42600;54.408;13.016;2022-07-04T12:07:14;24.30;66.70
420;DHT22;42600;54.408;13.016;2022-07-04T12:09:41;24.30;66.40
420;DHT22;42600;54.408;13.016;2022-07-04T12:12:09;24.30;66.40
420;DHT22;42600;54.408;13.016;2022-07-04T12:14:36;24.40;67.00
420;DHT22;42600;54.408;13.016;2022-07-04T12:17:17;24.40;66.70
420;DHT22;42600;54.408;13.016;2022-07-04T12:19:53;24.40;66.60
420;DHT22;42600;54.408;13.016;2022-07-04T12:22:41;24.40;66.30
420;DHT22;42600;54.408;13.016;2022-07-04T12:25:21;24.40;65.60
420;DHT22;42600;54.408;13.016;2022-07-04T12:27:52;24.40;65.00
420;DHT22;42600;54.408;13.016;2022-07-04T12:30:19;24.30;65.80
420;DHT22;42600;54.408;13.016;2022-07-04T12:32:48;24.30;65.30
420;DHT22;42600;54.408;13.016;2022-07-04T12:35:37;24.40;65.70
420;DHT22;42600;54.408;13.016;2022-07-04T12:38:05;24.50;65.60
420;DHT22;42600;54.408;13.016;2022-07-04T12:40:33;24.50;65.50
420;DHT22;42600;54.408;13.016;2022-07-04T12:43:00;24.60;65.90
420;DHT22;42600;54.408;13.016;2022-07-04T12:45:44;24.60;65.20
420;DHT22;42600;54.408;13.016;2022-07-04T12:48:15;24.60;65.00
420;DHT22;42600;54.408;13.016;2022-07-04T12:50:43;24.60;62.90
420;DHT22;42600;54.408;13.016;2022-07-04T12:53:10;24.40;63.40
420;DHT22;42600;54.408;13.016;2022-07-04T12:55:37;24.50;62.70
420;DHT22;42600;54.408;13.016;2022-07-04T12:58:04;24.50;62.60
420;DHT22;42600;54.408;13.016;2022-07-04T13:00:31;24.40;63.00
420;DHT22;42600;54.408;13.016;2022-07-04T13:02:57;24.50;63.00
420;DHT22;42600;54.408;13.016;2022-07-04T13:05:24;24.50;62.60
420;DHT22;42600;54.408;13.016;2022-07-04T13:07:52;24.50;63.10
420;DHT22;42600;54.408;13.016;2022-07-04T13:10:19;24.50;63.00
420;DHT22;42600;54.408;13.016;2022-07-04T13:12:45;24.40;61.90
420;DHT22;42600;54.408;13.016;2022-07-04T13:15:12;24.40;61.80
420;DHT22;42600;54.408;13.016;2022-07-04T13:17:39;24.30;61.90
420;DHT22;42600;54.408;13.016;2022-07-04T13:20:07;24.40;62.80
420;DHT22;42600;54.408;13.016;2022-07-04T13:22:34;24.50;62.80
420;DHT22;42600;54.408;13.016;2022-07-04T13:25:02;24.50;62.30
420;DHT22;42600;54.408;13.016;2022-07-04T13:27:29;24.50;62.70
420;DHT22;42600;54.408;13.016;2022-07-04T13:29:56;24.50;62.90
420;DHT22;42600;54.408;13.016;2022-07-04T13:32:22;24.60;62.80
420;DHT22;42600;54.408;13.016;2022-07-04T13:34:49;24.60;63.10
420;DHT22;42600;54.408;13.016;2022-07-04T13:37:16;24.60;63.40
420;DHT22;42600;54.408;13.016;2022-07-04T13:39:44;24.60;62.70
420;DHT22;42600;54.408;13.016;2022-07-04T13:42:12;24.70;63.10
420;DHT22;42600;54.408;13.016;2022-07-04T13:44:39;24.70;63.20
420;DHT22;42600;54.408;13.016;2022-07-04T13:47:05;24.70;63.20
420;DHT22;42600;54.408;13.016;2022-07-04T13:49:32;24.70;63.50
420;DHT22;42600;54.408;13.016;2022-07-04T13:51:58;24.80;63.70
420;DHT22;42600;54.408;13.016;2022-07-04T13:54:25;24.80;63.80
420;DHT22;42600;54.408;13.016;2022-07-04T13:56:52;24.90;63.80
420;DHT22;42600;54.408;13.016;2022-07-04T13:59:20;24.80;63.00
420;DHT22;42600;54.408;13.016;2022-07-04T14:01:46;24.80;63.40
420;DHT22;42600;54.408;13.016;2022-07-04T14:04:14;24.70;62.60
420;DHT22;42600;54.408;13.016;2022-07-04T14:06:40;24.80;62.70
420;DHT22;42600;54.408;13.016;2022-07-04T14:09:07;24.80;62.60
420;DHT22;42600;54.408;13.016;2022-07-04T14:11:33;24.80;62.10
420;DHT22;42600;54.408;13.016;2022-07-04T14:14:00;24.80;62.40
420;DHT22;42600;54.408;13.016;2022-07-04T14:16:28;24.80;62.90
420;DHT22;42600;54.408;13.016;2022-07-04T14:18:55;24.70;62.70
420;DHT22;42600;54.408;13.016;2022-07-04T14:21:22;24.70;63.20
420;DHT22;42600;54.408;13.016;2022-07-04T14:23:48;24.70;63.50
420;DHT22;42600;54.408;13.016;2022-07-04T14:26:17;24.80;62.90
420;DHT22;42600;54.408;13.016;2022-07-04T14:28:45;24.70;62.00
420;DHT22;42600;54.408;13.016;2022-07-04T14:31:11;24.60;62.60
420;DHT22;42600;54.408;13.016;2022-07-04T14:33:40;24.60;63.00
420;DHT22;42600;54.408;13.016;2022-07-04T14:36:07;24.60;63.10
420;DHT22;42600;54.408;13.016;2022-07-04T14:38:36;24.70;62.60
420;DHT22;42600;54.408;13.016;2022-07-04T14:41:03;24.60;62.80
420;DHT22;42600;54.408;13.016;2022-07-04T14:43:37;24.60;63.10
420;DHT22;42600;54.408;13.016;2022-07-04T14:46:04;24.60;62.80
420;DHT22;42600;54.408;13.016;2022-07-04T14:48:30;24.40;62.60
420;DHT22;42600;54.408;13.016;2022-07-04T14:50:58;24.60;62.90
420;DHT22;42600;54.408;13.016;2022-07-04T14:53:25;24.60;63.40
420;DHT22;42600;54.408;13.016;2022-07-04T14:55:52;24.70;63.50
420;DHT22;42600;54.408;13.016;2022-07-04T14:58:19;24.70;63.00
420;DHT22;42600;54.408;13.016;2022-07-04T15:00:45;24.70;63.30
420;DHT22;42600;54.408;13.016;2022-07-04T15:03:12;24.80;63.70
420;DHT22;42600;54.408;13.016;2022-07-04T15:05:39;24.80;63.80
420;DHT22;42600;54.408;13.016;2022-07-04T15:08:07;24.90;63.30
420;DHT22;42600;54.408;13.016;2022-07-04T15:10:34;24.80;62.80
420;DHT22;42600;54.408;13.016;2022-07-04T15:13:01;24.80;62.90
420;DHT22;42600;54.408;13.016;2022-07-04T15:15:27;24.80;63.00
420;DHT22;42600;54.408;13.016;2022-07-04T15:17:54;24.80;63.20
420;DHT22;42600;54.408;13.016;2022-07-04T15:20:20;24.80;62.80
420;DHT22;42600;54.408;13.016;2022-07-04T15:23:04;24.60;63.10
420;DHT22;42600;54.408;13.016;2022-07-04T15:25:50;24.60;62.90
420;DHT22;42600;54.408;13.016;2022-07-04T15:28:16;24.80;63.00
420;DHT22;42600;54.408;13.016;2022-07-04T15:30:43;24.80;63.00
420;DHT22;42600;54.408;13.016;2022-07-04T15:33:09;24.80;63.40
420;DHT22;42600;54.408;13.016;2022-07-04T15:35:40;24.90;63.40
420;DHT22;42600;54.408;13.016;2022-07-04T15:38:07;24.80;63.50
420;DHT22;42600;54.408;13.016;2022-07-04T15:40:33;24.80;63.20
420;DHT22;42600;54.408;13.016;2022-07-04T15:43:02;24.80;62.80
420;DHT22;42600;54.408;13.016;2022-07-04T15:45:29;24.70;63.40
420;DHT22;42600;54.408;13.016;2022-07-04T15:47:55;24.70;63.60
420;DHT22;42600;54.408;13.016;2022-07-04T15:50:22;24.80;63.20
420;DHT22;42600;54.408;13.016;2022-07-04T15:52:50;24.60;63.40
420;DHT22;42600;54.408;13.016;2022-07-04T15:55:17;24.70;63.30